VE89 weather

Darbhanga Airport
Bihar, India

Public forecast

Using degrees Celsius for public forecast. Weather courtesy of forecast.io.

Closest aviation weather report (METAR) to Darbhanga Airport

Closest report is Lok Nayak Jayaprakash Airport, 57.5 nm (106.5 km) SW. Retrieved 2019/11/17 13:30 UTC (28 minutes ago):

VEPT 171330Z 00000KT 3000 HZ NSC 24/17 Q1012 NOSIG

Closest aviation forecast (TAF) to Darbhanga Airport

Closest forecast is Lok Nayak Jayaprakash Airport, 57.5 nm (106.5 km) SW. Retrieved 2019/11/17 12:39 UTC (1 hour ago):

TAF VEPT 171100Z 1712/1818 24005KT 3500 HZ NSC BECMG 1716/1718 2500 BR BECMG 1723/1801 1200 MIFG BR BECMG 1804/1806 2000 BR HZ BECMG 1808/1810 4000 HZ BECMG 1816/1818 2500 BR